Latest Coastal Weather Observations for Rhyll

IDV60701

Issued at 5:02 pm EST Monday 20 May 2024 (issued every 10 minutes, with the page automatically refreshed every 10 minutes)

About coastal observations | Map of coastal stations | Coastal observations for VIC | Marine services | Other Formats
Station Details ID: 086373 Name: RHYLL Lat: -38.46 Lon: 145.31 Height: 13.4 m
Data from the previous 72 hours. | See also: Recent months at Rhyll
Date/Time
EST
Wind Sea
Height
m
Swell Vis
km
Cloud Weather Temp
°C
Press
MSL
hPa
Rain since
9am
mm
Dir  Spd
kts
Gust
kts
Height
m
Period
s
Dir
20/05:00pm SSW 7 9 - - - - - - - 12.6 1028.1 0.2
20/04:30pm SSW 7 12 - - - - - - - 13.0 1027.9 0.2
20/04:00pm SSW 8 12 - - - - - - - 13.8 1027.9 0.2
20/03:30pm SSW 8 13 - - - - - - - 14.3 1027.8 0.2
20/03:00pm SSW 7 12 - - - - - - Rain 14.5 1027.5 0.2
20/02:30pm SSW 6 13 - - - - - - - 14.4 1027.4 0.0
20/02:00pm SSW 6 12 - - - - - - - 14.8 1027.4 0.0
20/01:30pm SSW 6 12 - - - - - - - 14.9 1027.4 0.0
20/01:00pm SSW 8 13 - - - - - - - 14.5 1027.4 0.0
20/12:30pm SSW 8 12 - - - - - - - 14.8 1027.5 0.0
20/12:00pm SSW 8 13 - - - - - - - 14.7 1027.7 0.0
20/11:30am SSW 6 12 - - - - - - - 13.7 1028.1 0.0
20/11:00am S 9 13 - - - - - - - 13.9 1028.1 0.0
20/10:30am S 10 15 - - - - - - - 14.2 1027.7 0.0
20/10:00am SSW 9 14 - - - - - - - 13.7 1027.6 0.0
20/09:30am SSW 8 13 - - - - - - - 13.5 1027.3 0.0
20/09:00am SSW 10 15 - - - - - - - 13.3 1027.1 3.4
20/08:30am SSW 9 15 - - - - - - - 13.3 1026.7 3.4
20/08:00am SSW 8 13 - - - - - - - 12.6 1026.3 3.4
20/07:30am SSW 6 11 - - - - - - - 12.4 1025.9 3.4
20/07:00am SW 4 6 - - - - - - - 11.9 1025.6 3.4
20/06:30am SSW 6 10 - - - - - - - 12.0 1025.2 3.4
20/06:00am SSW 7 10 - - - - - - - 11.7 1025.0 3.4
20/05:30am SSW 4 8 - - - - - - - 11.3 1024.8 3.4
20/05:00am CALM 0 2 - - - - - - - 11.7 1024.5 3.4
20/04:30am SW 6 11 - - - - - - - 11.9 1024.3 2.8
20/04:00am SSW 7 15 - - - - - - - 12.5 1023.9 2.8
20/03:30am SSW 7 11 - - - - - - - 11.9 1023.8 2.8
20/03:00am SW 5 9 - - - - - - Recent precip. 11.3 1023.8 2.8
20/02:30am S 10 16 - - - - - - - 12.2 1023.8 2.8
20/02:00am SSW 5 9 - - - - - - - 12.4 1023.5 2.6
20/01:30am SW 4 6 - - - - - - - 12.0 1023.4 2.2
20/01:00am WSW 5 8 - - - - - - - 11.8 1023.3 2.2
20/12:30am SW 6 10 - - - - - - - 11.7 1023.5 2.2
20/12:00am SW 3 6 - - - - - - Recent precip. 12.0 1023.6 2.2
 
Date/Time
EST
Wind Sea
Height
m
Swell Vis
km
Cloud Weather Temp
°C
Press
MSL
hPa
Rain since
9am
mm
Dir  Spd
kts
Gust
kts
Height
m
Period
s
Dir
19/11:30pm WSW 5 10 - - - - - - - 11.6 1023.5 2.2
19/11:00pm WSW 5 9 - - - - - - - 11.6 1023.7 2.0
19/10:30pm WSW 7 11 - - - - - - - 11.6 1023.7 2.0
19/10:00pm WSW 6 11 - - - - - - - 11.8 1024.0 2.0
19/09:30pm WSW 8 13 - - - - - - - 12.1 1023.9 2.0
19/09:00pm WSW 7 12 - - - - - - - 13.0 1023.7 2.0
19/08:30pm WSW 7 11 - - - - - - - 12.9 1023.6 2.0
19/08:00pm SW 7 14 - - - - - - - 13.2 1023.5 2.0
19/07:30pm WSW 7 13 - - - - - - - 12.4 1023.5 2.0
19/07:00pm SW 7 12 - - - - - - - 12.8 1023.1 2.0
19/06:30pm SW 4 6 - - - - - - - 12.1 1022.8 2.0
19/06:00pm SW 7 13 - - - - - - - 12.4 1022.5 2.0
19/05:30pm SW 7 11 - - - - - - - 12.4 1022.3 2.0
19/05:00pm WSW 7 12 - - - - - - - 13.5 1021.8 2.0
19/04:30pm W 5 9 - - - - - - - 13.5 1021.8 2.0
19/04:00pm WSW 7 13 - - - - - - - 14.1 1021.4 2.0
19/03:30pm WSW 5 11 - - - - - - - 13.8 1021.5 2.0
19/03:00pm SW 9 18 - - - - - - Rain 13.9 1021.5 2.0
19/02:30pm SW 8 13 - - - - - - - 13.6 1021.4 1.8
19/02:00pm W 5 9 - - - - - - - 13.4 1021.5 1.8
19/01:30pm W 4 9 - - - - - - - 13.7 1021.4 1.4
19/01:00pm W 6 10 - - - - - - - 13.1 1021.8 1.4
19/12:30pm W 7 13 - - - - - - - 12.9 1022.1 0.8
19/12:00pm W 6 9 - - - - - - Recent precip. 13.0 1022.4 0.4
19/11:30am WNW 8 15 - - - - - - - 13.0 1022.9 0.0
19/11:00am WNW 8 14 - - - - - - - 13.7 1022.9 0.0
19/10:30am WNW 6 10 - - - - - - - 12.8 1023.0 0.0
19/10:00am WNW 7 12 - - - - - - - 12.4 1023.2 0.0
19/09:30am WNW 5 11 - - - - - - - 12.4 1023.3 0.0
19/09:00am NW 6 13 - - - - - - - 11.9 1023.4 0.4
19/08:30am WNW 5 8 - - - - - - - 10.9 1023.5 0.4
19/08:00am WNW 4 9 - - - - - - - 10.6 1023.7 0.4
19/07:30am WNW 5 11 - - - - - - - 10.6 1023.7 0.4
19/07:00am WNW 5 10 - - - - - - - 10.6 1023.7 0.4
19/06:30am WNW 6 13 - - - - - - - 10.4 1023.5 0.4
19/06:00am WNW 5 13 - - - - - - Recent precip. 10.3 1023.9 0.4
19/05:30am WNW 6 12 - - - - - - - 10.4 1024.2 0.2
19/05:00am WNW 6 11 - - - - - - - 10.9 1024.1 0.0
19/04:30am WNW 6 10 - - - - - - - 11.1 1024.1 0.0
19/04:00am WNW 5 9 - - - - - - - 11.1 1024.5 0.0
19/03:30am WNW 5 11 - - - - - - - 11.0 1024.8 0.0
19/03:00am WNW 7 15 - - - - - - - 11.1 1025.2 0.0
19/02:30am NW 4 8 - - - - - - - 10.8 1025.4 0.0
19/02:00am NW 4 10 - - - - - - - 10.7 1025.4 0.0
19/01:30am NW 4 8 - - - - - - - 10.8 1025.9 0.0
19/01:00am WNW 2 5 - - - - - - - 10.8 1026.5 0.0
19/12:30am W 3 5 - - - - - - - 10.9 1027.1 0.0
19/12:00am WNW 3 6 - - - - - - - 10.6 1027.4 0.0
 
Date/Time
EST
Wind Sea
Height
m
Swell Vis
km
Cloud Weather Temp
°C
Press
MSL
hPa
Rain since
9am
mm
Dir  Spd
kts
Gust
kts
Height
m
Period
s
Dir
18/11:30pm W 3 5 - - - - - - - 10.2 1027.9 0.0
18/11:00pm WNW 3 6 - - - - - - - 10.1 1028.1 0.0
18/10:30pm W 3 5 - - - - - - - 9.9 1028.7 0.0
18/10:00pm W 3 6 - - - - - - - 10.0 1029.0 0.0
18/09:30pm W 3 5 - - - - - - - 9.6 1029.0 0.0
18/09:00pm W 4 5 - - - - - - - 9.8 1029.6 0.0
18/08:30pm W 3 4 - - - - - - - 9.5 1029.4 0.0
18/08:00pm W 4 5 - - - - - - - 9.6 1030.2 0.0
18/07:30pm WSW 4 6 - - - - - - - 10.0 1030.2 0.0
18/07:00pm W 4 6 - - - - - - - 9.9 1030.2 0.0
18/06:30pm W 3 5 - - - - - - - 9.8 1030.4 0.0
18/06:00pm W 2 3 - - - - - - - 9.4 1030.2 0.0
18/05:30pm W 2 3 - - - - - - - 10.3 1030.1 0.0
18/05:00pm WSW 2 3 - - - - - - - 11.3 1030.6 0.0
18/04:30pm SSW 3 5 - - - - - - - 11.7 1030.8 0.0
18/04:00pm SSW 4 8 - - - - - - - 12.2 1030.9 0.0
18/03:30pm SSW 3 5 - - - - - - - 12.4 1031.1 0.0
18/03:00pm S 4 7 - - - - - - - 13.4 1031.1 0.0
18/02:30pm S 4 6 - - - - - - - 14.2 1031.4 0.0
18/02:00pm S 5 8 - - - - - - - 13.9 1031.7 0.0
18/01:30pm SSE 5 7 - - - - - - - 14.6 1032.0 0.0
18/01:00pm SSE 5 7 - - - - - - - 14.4 1032.1 0.0
18/12:30pm SE 7 9 - - - - - - - 14.3 1032.4 0.0
18/12:00pm SE 7 9 - - - - - - - 14.1 1032.6 0.0
18/11:30am SE 5 9 - - - - - - - 13.6 1033.1 0.0
18/11:00am ESE 8 11 - - - - - - - 13.7 1033.5 0.0
18/10:30am ESE 9 11 - - - - - - - 13.5 1033.5 0.0
18/10:00am ESE 8 11 - - - - - - - 13.4 1033.3 0.0
18/09:30am ESE 8 10 - - - - - - - 13.1 1033.1 0.0
18/09:00am ESE 8 11 - - - - - - - 12.2 1033.0 3.8
18/08:30am E 8 11 - - - - - - - 11.7 1032.7 3.8
18/08:00am E 10 13 - - - - - - - 10.8 1032.6 3.8
18/07:30am ESE 10 12 - - - - - - - 10.1 1032.4 3.8
18/07:00am ESE 12 16 - - - - - - - 10.7 1032.4 3.8
18/06:30am SSE 10 16 - - - - - - - 11.0 1031.9 3.8
18/06:00am S 10 14 - - - - - - - 10.7 1031.6 3.8
18/05:30am SSE 11 14 - - - - - - - 10.8 1031.2 3.8
18/05:00am S 10 15 - - - - - - - 10.6 1031.2 3.8
18/04:30am S 11 15 - - - - - - - 10.6 1031.2 3.8
18/04:00am S 11 16 - - - - - - - 10.5 1030.8 3.8
18/03:30am S 14 21 - - - - - - - 10.4 1030.8 3.8
18/03:00am S 15 21 - - - - - - - 10.4 1030.7 3.8
18/02:30am S 17 23 - - - - - - - 10.6 1030.6 3.8
18/02:00am S 16 22 - - - - - - - 10.6 1030.7 3.8
18/01:30am S 16 24 - - - - - - - 10.7 1030.6 3.8
18/01:00am S 17 24 - - - - - - - 10.9 1030.6 3.8
18/12:30am S 17 22 - - - - - - - 11.0 1030.6 3.8
18/12:00am S 18 24 - - - - - - - 10.9 1030.4 3.8
 
Date/Time
EST
Wind Sea
Height
m
Swell Vis
km
Cloud Weather Temp
°C
Press
MSL
hPa
Rain since
9am
mm
Dir  Spd
kts
Gust
kts
Height
m
Period
s
Dir
17/11:30pm S 18 28 - - - - - - - 10.5 1030.3 3.8
17/11:25pm SSW 15 28 - - - - - - - 10.5 1030.3 3.8
17/11:00pm S 16 21 - - - - - - - 10.6 1030.1 3.8
17/10:36pm S 15 25 - - - - - - - 11.7 1030.1 3.6
17/10:30pm S 14 20 - - - - - - - 11.4 1030.1 3.6
17/10:00pm S 18 26 - - - - - - - 11.2 1030.0 3.6
17/09:30pm S 19 28 - - - - - - - 11.8 1029.7 3.6
17/09:00pm SSW 15 26 - - - - - - - 11.9 1029.5 3.6
17/08:44pm SSW 15 26 - - - - - - - 11.6 1029.4 3.6
17/08:30pm SSW 13 23 - - - - - - - 11.5 1029.2 3.6
17/08:14pm SSW 17 28 - - - - - - - 10.6 1029.3 3.6
17/08:00pm SW 8 21 - - - - - - - 10.7 1029.3 3.6
17/07:30pm SSW 12 22 - - - - - - - 12.1 1028.8 2.8
17/07:00pm SSW 14 21 - - - - - - - 12.4 1028.5 2.8
17/06:30pm SW 12 21 - - - - - - - 12.8 1028.4 2.8
17/06:00pm SW 7 16 - - - - - - - 12.5 1028.1 2.8
17/05:30pm SSW 10 15 - - - - - - - 13.1 1027.5 2.8

Other formats

Comma delimited format used in spreadsheet applications
http://www.bom.gov.au/fwo/IDV60701/IDV60701.94892.axf

JavaScript Object Notation format (JSON) in row-major order
http://www.bom.gov.au/fwo/IDV60701/IDV60701.94892.json

Data quality

Most of these data are generated automatically and are frequently updated. Quality checks on data are not normally performed. It is possible for incorrect values to appear. Refer to information at About Latest Weather Observations and please check the disclaimer before using these data.